Rechercher aéroport 
image banner adimage banner adimage banner ad
image banner ad

PS89 - Press Enterprise

Situé à Bloomsburg, United States

ICAO - PS89, IATA -

Données fournies par Airmate  

Information générale

Coordonnées: N41°0'43" W76°24'19"
Élévation : 490 feet MSL.
Variation magnétique : -11° East
Voir autres Aéroports à Pennsylvania

Données opérationnelles

Special qualification required
Heure actuelle UTC:
Heure actuelle locale:
Météo à : KHZL - Hazleton Rgnl ( 35 km )
METAR: KHZL 132115Z AUTO 12003KT 10SM OVC018 22/17 A2993 RMK AO2
Voir NOTAMs / SUP AIP / TFR affectant cet aéroport [VIEW]
Fréquences de communication: [VIEW]

Pistes:

Coordonnées de l'aéroport

Adresse: Bloomsburg United States

Vue satellite de PS89